createdAt,value
2023-04-22T00:03:10.502Z,14.27
2023-04-22T00:08:13.228Z,15.68
2023-04-22T00:13:15.873Z,16.63
2023-04-22T00:18:19.010Z,14.57
2023-04-22T00:23:21.779Z,14.80
2023-04-22T00:28:24.506Z,20.67
2023-04-22T00:33:27.039Z,9.35
2023-04-22T00:38:29.897Z,14.32
2023-04-22T00:43:32.545Z,15.18
2023-04-22T00:48:39.892Z,16.85
2023-04-22T00:53:42.513Z,12.68
2023-04-22T00:58:45.460Z,10.82
2023-04-22T01:03:50.092Z,16.23
2023-04-22T01:08:52.904Z,13.27
2023-04-22T01:13:55.502Z,10.13
2023-04-22T01:18:58.153Z,17.08
2023-04-22T01:24:03.663Z,15.73
2023-04-22T01:29:06.621Z,13.10
2023-04-22T01:34:09.790Z,19.02
2023-04-22T01:39:12.791Z,12.65
2023-04-22T01:44:16.388Z,14.55
2023-04-22T01:49:18.940Z,11.73
2023-04-22T01:54:21.698Z,15.45
2023-04-22T01:59:26.557Z,22.35
2023-04-22T02:04:29.371Z,12.93
2023-04-22T02:09:34.703Z,13.25
2023-04-22T02:14:37.278Z,15.15
2023-04-22T02:19:40.373Z,18.15
2023-04-22T02:24:43.384Z,11.90
2023-04-22T02:29:46.248Z,11.68
2023-04-22T02:34:49.442Z,12.82
2023-04-22T02:39:51.972Z,15.00
2023-04-22T02:44:54.770Z,22.63
2023-04-22T02:49:57.389Z,17.48
2023-04-22T02:55:01.719Z,15.88
2023-04-22T03:00:06.665Z,12.80
2023-04-22T03:05:10.836Z,20.63
2023-04-22T03:10:13.519Z,16.88
2023-04-22T03:15:18.824Z,15.00
2023-04-22T03:20:23.318Z,15.10
2023-04-22T03:25:26.219Z,13.02
2023-04-22T03:30:31.350Z,9.20
2023-04-22T03:35:34.646Z,14.43
2023-04-22T03:40:37.715Z,11.25
2023-04-22T03:45:51.606Z,13.65
2023-04-22T03:50:59.057Z,10.43
2023-04-22T03:56:04.872Z,8.27
2023-04-22T04:01:11.617Z,9.73
2023-04-22T04:06:16.165Z,13.50
2023-04-22T04:11:18.829Z,12.27
2023-04-22T04:16:23.065Z,7.60
2023-04-22T04:21:33.513Z,8.82
2023-04-22T04:26:37.951Z,15.70
2023-04-22T04:31:51.052Z,13.23
2023-04-22T04:36:54.834Z,12.80
2023-04-22T04:42:04.157Z,9.75
2023-04-22T04:47:15.197Z,12.90
2023-04-22T04:52:18.312Z,14.23
2023-04-22T04:57:21.080Z,10.45
2023-04-22T05:02:24.389Z,18.33
2023-04-22T05:07:27.235Z,13.32
2023-04-22T05:12:30.009Z,12.68
2023-04-22T05:17:34.638Z,12.10
2023-04-22T05:22:38.029Z,8.85
2023-04-22T05:27:41.959Z,8.52
2023-04-22T05:32:45.839Z,11.82
2023-04-22T05:37:49.046Z,8.20
2023-04-22T05:42:51.703Z,8.32
2023-04-22T05:47:54.558Z,6.93
2023-04-22T05:52:59.005Z,5.85
2023-04-22T05:58:03.657Z,3.42
2023-04-22T06:03:20.777Z,2.40
2023-04-22T06:08:23.760Z,5.75
2023-04-22T06:13:27.617Z,3.72
2023-04-22T06:18:30.301Z,3.30
2023-04-22T06:23:32.968Z,6.10
2023-04-22T06:28:35.619Z,3.50
2023-04-22T06:33:43.367Z,1.90
2023-04-22T06:38:46.078Z,2.92
2023-04-22T06:44:07.122Z,1.73
2023-04-22T06:49:39.734Z,4.78
2023-04-22T06:55:09.074Z,4.07
2023-04-22T07:00:12.457Z,4.93
2023-04-22T07:05:17.226Z,3.88
2023-04-22T07:10:21.245Z,4.80
2023-04-22T07:15:46.256Z,3.72
2023-04-22T07:20:48.930Z,3.45
2023-04-22T07:25:51.540Z,4.93
2023-04-22T07:30:54.600Z,6.45
2023-04-22T07:35:57.285Z,6.97
2023-04-22T07:40:59.851Z,8.68
2023-04-22T07:46:02.868Z,3.25
2023-04-22T07:51:06.101Z,6.95
2023-04-22T07:56:09.189Z,4.45
2023-04-22T08:01:11.743Z,13.38
2023-04-22T08:06:14.554Z,6.25
2023-04-22T08:11:17.159Z,4.15
2023-04-22T08:16:19.955Z,2.22
2023-04-22T08:21:22.534Z,8.52
2023-04-22T08:26:25.860Z,6.43
2023-04-22T08:31:28.525Z,4.88
2023-04-22T08:36:32.056Z,3.97
2023-04-22T08:41:35.906Z,5.00
2023-04-22T08:46:39.527Z,10.55
2023-04-22T08:51:43.631Z,7.47
2023-04-22T08:56:46.293Z,2.05
2023-04-22T09:01:53.364Z,2.30
2023-04-22T09:06:56.842Z,2.67
2023-04-22T09:11:59.448Z,5.88
2023-04-22T09:17:03.876Z,2.78
2023-04-22T09:22:10.643Z,4.13
2023-04-22T09:27:13.507Z,1.80
2023-04-22T09:32:17.193Z,6.50
2023-04-22T09:37:33.071Z,2.70
2023-04-22T09:42:49.813Z,3.80
2023-04-22T09:47:52.571Z,4.97
2023-04-22T09:53:18.961Z,2.90
2023-04-22T09:58:23.991Z,2.65
2023-04-22T10:03:26.837Z,3.70
2023-04-22T10:08:30.745Z,8.85
2023-04-22T10:13:33.421Z,2.75
2023-04-22T10:18:39.428Z,6.03
2023-04-22T10:23:49.977Z,2.72
2023-04-22T10:28:52.624Z,6.25
2023-04-22T10:34:11.149Z,5.75
2023-04-22T10:39:17.722Z,5.47
2023-04-22T10:44:22.611Z,6.13
2023-04-22T10:49:29.229Z,4.05
2023-04-22T10:54:36.512Z,6.60
2023-04-22T10:59:56.347Z,4.68
2023-04-22T11:05:22.870Z,4.63
2023-04-22T11:10:42.970Z,3.50
2023-04-22T11:15:51.529Z,4.40
2023-04-22T11:20:54.723Z,2.85
2023-04-22T11:25:59.720Z,3.15
2023-04-22T11:31:04.227Z,10.75
2023-04-22T11:36:15.775Z,2.92
2023-04-22T11:41:23.261Z,2.58
2023-04-22T11:46:38.444Z,2.45
2023-04-22T11:51:57.326Z,7.88
2023-04-22T11:57:08.612Z,2.70
2023-04-22T12:02:11.509Z,5.28
2023-04-22T12:07:15.491Z,2.85
2023-04-22T12:12:18.146Z,9.73
2023-04-22T12:17:24.770Z,7.35
2023-04-22T12:22:29.713Z,7.88
2023-04-22T12:27:32.351Z,2.83
2023-04-22T12:32:35.000Z,1.83
2023-04-22T12:37:37.613Z,4.65
2023-04-22T12:42:40.220Z,4.90
2023-04-22T12:47:43.125Z,2.13
2023-04-22T12:52:46.262Z,6.20
2023-04-22T12:57:51.464Z,4.90
2023-04-22T13:02:57.288Z,4.10
2023-04-22T13:08:07.219Z,7.93
2023-04-22T13:13:18.388Z,4.38
2023-04-22T13:18:23.523Z,7.63
2023-04-22T13:23:27.048Z,5.68
2023-04-22T13:28:31.030Z,4.40
2023-04-22T13:33:33.543Z,3.20
2023-04-22T13:38:36.634Z,4.90
2023-04-22T13:43:39.171Z,7.03
2023-04-22T13:48:41.663Z,4.15
2023-04-22T13:53:44.332Z,5.18
2023-04-22T13:58:47.015Z,6.45
2023-04-22T14:03:49.845Z,5.80
2023-04-22T14:08:52.919Z,5.32
2023-04-22T14:13:55.724Z,4.15
2023-04-22T14:18:58.431Z,7.78
2023-04-22T14:24:01.015Z,3.22
2023-04-22T14:29:03.918Z,5.00
2023-04-22T14:34:06.518Z,8.05
2023-04-22T14:39:09.325Z,2.90
2023-04-22T14:44:14.470Z,2.88
2023-04-22T14:49:17.049Z,5.82
2023-04-22T14:54:19.637Z,5.78
2023-04-22T14:59:22.612Z,3.30
2023-04-22T15:04:25.383Z,8.27
2023-04-22T15:09:28.035Z,4.85
2023-04-22T15:14:32.269Z,10.18
2023-04-22T15:19:35.066Z,3.80
2023-04-22T15:24:37.778Z,2.95
2023-04-22T15:29:45.010Z,6.65
2023-04-22T15:34:47.759Z,7.00
2023-04-22T15:39:50.472Z,15.00
2023-04-22T15:44:53.088Z,9.48
2023-04-22T15:49:57.808Z,11.32
2023-04-22T15:55:03.616Z,14.43
2023-04-22T16:00:13.094Z,10.10
2023-04-22T16:05:18.191Z,9.38
2023-04-22T16:10:21.336Z,9.20
2023-04-22T16:15:26.262Z,7.40
2023-04-22T16:20:29.620Z,5.68
2023-04-22T16:25:32.364Z,6.30
2023-04-22T16:30:35.048Z,8.55
2023-04-22T16:35:37.732Z,8.40
2023-04-22T16:40:40.378Z,11.48
2023-04-22T16:45:42.962Z,23.02
2023-04-22T16:50:45.625Z,30.92
2023-04-22T16:55:48.191Z,19.33
2023-04-22T17:00:51.246Z,13.75
2023-04-22T17:05:54.114Z,8.73
2023-04-22T17:10:56.758Z,12.70
2023-04-22T17:15:59.507Z,28.08
2023-04-22T17:21:02.171Z,28.88
2023-04-22T17:26:04.954Z,26.27
2023-04-22T17:31:08.050Z,18.27
2023-04-22T17:36:11.364Z,44.30
2023-04-22T17:41:14.036Z,40.40
2023-04-22T17:46:16.683Z,26.20
2023-04-22T17:51:19.341Z,53.92
2023-04-22T17:56:22.242Z,30.75
2023-04-22T18:01:25.696Z,65.18
2023-04-22T18:06:29.176Z,55.38
2023-04-22T18:11:32.431Z,41.78
2023-04-22T18:16:35.226Z,53.28
2023-04-22T18:21:41.613Z,55.88
2023-04-22T18:26:49.478Z,52.90
2023-04-22T18:31:52.232Z,31.90
2023-04-22T18:36:55.362Z,45.58
2023-04-22T18:41:57.923Z,21.42
2023-04-22T18:47:00.578Z,24.70
2023-04-22T18:52:03.307Z,40.35
2023-04-22T18:57:06.114Z,36.58
2023-04-22T19:02:13.022Z,30.52
2023-04-22T19:07:15.853Z,31.35
2023-04-22T19:12:19.709Z,43.55
2023-04-22T19:17:22.406Z,60.08
2023-04-22T19:22:25.311Z,55.08
2023-04-22T19:27:28.030Z,49.53
2023-04-22T19:32:31.315Z,36.38
2023-04-22T19:37:34.170Z,18.00
2023-04-22T19:42:36.856Z,58.05
2023-04-22T19:47:39.923Z,64.07
2023-04-22T19:52:47.728Z,49.63
2023-04-22T19:57:51.518Z,28.77
2023-04-22T20:02:54.451Z,23.50
2023-04-22T20:08:01.356Z,22.58
2023-04-22T20:13:07.474Z,30.75
2023-04-22T20:18:12.479Z,19.67
2023-04-22T20:23:17.609Z,23.17
2023-04-22T20:28:31.674Z,36.13
2023-04-22T20:33:35.833Z,31.83
2023-04-22T20:38:38.781Z,35.58
2023-04-22T20:43:45.007Z,25.42
2023-04-22T20:48:48.001Z,27.23
2023-04-22T20:53:51.420Z,22.00
2023-04-22T20:58:54.096Z,25.42
2023-04-22T21:04:00.059Z,23.08
2023-04-22T21:09:04.235Z,25.08
2023-04-22T21:14:07.761Z,19.98
2023-04-22T21:19:12.376Z,26.92
2023-04-22T21:24:15.854Z,22.17
2023-04-22T21:29:19.194Z,18.55
2023-04-22T21:34:22.237Z,21.83
2023-04-22T21:39:24.956Z,18.35
2023-04-22T21:44:28.496Z,24.98
2023-04-22T21:49:31.911Z,27.83
2023-04-22T21:54:34.607Z,14.27
2023-04-22T21:59:38.025Z,18.02
2023-04-22T22:04:42.717Z,21.20
2023-04-22T22:09:46.784Z,16.40
2023-04-22T22:14:49.312Z,16.27
2023-04-22T22:19:52.231Z,18.42
2023-04-22T22:24:54.835Z,43.45
2023-04-22T22:29:57.483Z,23.52
2023-04-22T22:35:00.193Z,20.10
2023-04-22T22:40:03.246Z,19.15
2023-04-22T22:45:06.849Z,17.95
2023-04-22T22:50:09.667Z,18.20
2023-04-22T22:55:12.172Z,16.00
2023-04-22T23:00:15.133Z,17.30
2023-04-22T23:05:17.850Z,19.50
2023-04-22T23:10:20.960Z,20.00
2023-04-22T23:15:23.675Z,22.63
2023-04-22T23:20:27.367Z,24.02
2023-04-22T23:25:30.324Z,20.80
2023-04-22T23:30:33.290Z,18.75
2023-04-22T23:35:37.792Z,19.65
2023-04-22T23:40:40.432Z,19.63
2023-04-22T23:45:43.252Z,21.08
2023-04-22T23:50:45.965Z,22.05
2023-04-22T23:55:48.873Z,27.50
